Time;durP1;ratioP1;P1;durP2;ratioP2;P2;SDS_P1;SDS_P2;PMS_P1;PMS_P2;Temp;Humidity;BMP_temperature;BMP_pressure;BME280_temperature;BME280_humidity;BME280_pressure;Samples;Min_cycle;Max_cycle;Signal;HPM_P1;HPM_P2
2021/07/24 00:00:59;;;;;;;15.38;12.18;;;17.10;84.00;;;;;;5075407;28;20021;-75
2021/07/24 00:03:26;;;;;;;17.08;12.10;;;17.10;84.10;;;;;;5091368;28;20516;-76
2021/07/24 00:05:52;;;;;;;15.82;12.57;;;17.10;84.10;;;;;;5074888;28;20032;-76
2021/07/24 00:08:18;;;;;;;15.73;11.70;;;17.10;84.20;;;;;;5096856;28;20039;-82
2021/07/24 00:10:44;;;;;;;17.58;12.25;;;17.10;84.30;;;;;;5095125;28;20024;-76
2021/07/24 00:13:09;;;;;;;16.05;11.75;;;17.00;84.20;;;;;;5078185;28;20476;-76
2021/07/24 00:15:36;;;;;;;15.27;12.55;;;17.10;84.30;;;;;;5096073;28;20497;-76
2021/07/24 00:18:02;;;;;;;21.40;13.75;;;17.00;84.50;;;;;;5078265;28;20032;-75
2021/07/24 00:20:28;;;;;;;19.48;13.20;;;17.00;84.70;;;;;;5077764;28;20035;-77
2021/07/24 00:22:53;;;;;;;17.15;13.35;;;16.90;84.70;;;;;;5095953;28;20081;-78
2021/07/24 00:25:19;;;;;;;18.17;13.45;;;16.90;84.90;;;;;;5095383;28;20027;-80
2021/07/24 00:27:45;;;;;;;16.92;13.60;;;16.90;85.00;;;;;;5094455;28;20052;-79
2021/07/24 00:30:11;;;;;;;21.65;13.68;;;16.90;85.00;;;;;;5094911;28;20130;-76
2021/07/24 00:32:37;;;;;;;15.30;13.10;;;16.80;85.10;;;;;;5096000;28;20043;-76
2021/07/24 00:35:03;;;;;;;16.85;14.38;;;16.80;85.10;;;;;;5077893;28;20352;-75
2021/07/24 00:37:28;;;;;;;18.05;14.00;;;16.80;85.10;;;;;;5077834;28;20028;-76
2021/07/24 00:39:54;;;;;;;17.23;13.68;;;16.80;85.10;;;;;;5078106;28;20078;-76
2021/07/24 00:42:25;;;;;;;13.98;12.40;;;16.80;85.20;;;;;;5079340;28;20028;-78
2021/07/24 00:44:52;;;;;;;17.40;13.75;;;16.80;85.20;;;;;;5095249;28;20118;-76
2021/07/24 00:47:23;;;;;;;20.60;13.85;;;16.80;85.20;;;;;;5078628;28;20407;-76
2021/07/24 00:49:50;;;;;;;18.55;13.48;;;16.80;85.20;;;;;;5095534;28;20047;-76
2021/07/24 00:52:16;;;;;;;17.08;13.73;;;16.80;85.10;;;;;;5078044;28;20082;-76
2021/07/24 00:54:42;;;;;;;17.85;13.15;;;16.90;84.90;;;;;;5095121;28;20035;-76
2021/07/24 00:57:08;;;;;;;17.67;14.02;;;16.90;84.70;;;;;;5077908;28;20457;-75
2021/07/24 00:59:34;;;;;;;17.85;14.13;;;16.90;84.70;;;;;;5095295;28;20477;-75
2021/07/24 01:02:00;;;;;;;17.42;13.93;;;16.80;85.00;;;;;;5094548;28;20426;-76
2021/07/24 01:04:26;;;;;;;19.83;14.75;;;16.70;85.30;;;;;;5094246;28;20375;-76
2021/07/24 01:06:52;;;;;;;18.23;14.38;;;16.60;85.50;;;;;;5094034;28;20038;-76
2021/07/24 01:09:18;;;;;;;20.85;15.48;;;16.50;85.80;;;;;;5094017;28;20141;-77
2021/07/24 01:11:44;;;;;;;17.35;14.38;;;16.50;86.10;;;;;;5093663;28;20474;-76
2021/07/24 01:14:11;;;;;;;18.38;14.05;;;16.50;86.20;;;;;;5093626;28;20062;-76
2021/07/24 01:16:37;;;;;;;19.88;14.93;;;16.40;86.90;;;;;;5077326;28;20020;-80
2021/07/24 01:19:02;;;;;;;21.85;14.73;;;16.30;86.60;;;;;;5076479;28;20348;-76
2021/07/24 01:21:30;;;;;;;18.30;15.98;;;16.30;86.70;;;;;;5094129;28;20033;-77
2021/07/24 01:23:56;;;;;;;17.95;15.07;;;16.20;86.80;;;;;;5093937;28;20057;-76
2021/07/24 01:26:26;;;;;;;20.48;15.93;;;16.20;87.10;;;;;;5095034;28;20032;-76
2021/07/24 01:28:52;;;;;;;21.60;16.55;;;16.10;87.30;;;;;;5095945;28;20052;-75
2021/07/24 01:31:18;;;;;;;20.88;15.98;;;16.00;87.60;;;;;;5076796;28;20035;-76
2021/07/24 01:33:44;;;;;;;19.65;16.23;;;16.00;87.90;;;;;;5093896;28;20052;-77
2021/07/24 01:36:10;;;;;;;20.63;15.80;;;16.00;88.00;;;;;;5093574;28;20050;-76
2021/07/24 01:38:40;;;;;;;20.85;15.95;;;15.90;87.90;;;;;;5076447;28;20036;-76
2021/07/24 01:41:10;;;;;;;21.10;15.25;;;16.00;88.10;;;;;;5094699;28;20468;-77
2021/07/24 01:43:36;;;;;;;21.35;15.50;;;15.90;88.10;;;;;;5077297;28;20038;-77
2021/07/24 01:46:03;;;;;;;20.77;16.15;;;15.90;88.20;;;;;;5094828;28;20036;-76
2021/07/24 01:54:17;;;;;;;17.83;14.15;;;16.00;88.10;;;;;;5094699;28;20043;-77
2021/07/24 01:56:42;;;;;;;19.35;15.15;;;16.00;88.00;;;;;;5094781;28;20020;-76
2021/07/24 01:59:08;;;;;;;19.42;15.27;;;16.10;87.90;;;;;;5093103;28;20501;-77
2021/07/24 02:01:34;;;;;;;19.33;14.48;;;16.00;87.90;;;;;;5092875;28;20036;-77
2021/07/24 02:04:12;;;;;;;18.73;15.13;;;16.00;87.90;;;;;;5076864;28;20517;-76
2021/07/24 02:06:41;;;;;;;20.55;14.48;;;16.00;88.00;;;;;;5094642;28;20024;-77
2021/07/24 02:09:06;;;;;;;23.80;15.45;;;16.00;88.10;;;;;;5094441;28;20035;-76
2021/07/24 02:11:32;;;;;;;24.25;16.02;;;15.90;88.20;;;;;;5095548;28;20391;-77
2021/07/24 02:13:58;;;;;;;19.52;15.07;;;15.90;88.30;;;;;;5100563;28;20027;-78
2021/07/24 02:16:25;;;;;;;19.50;15.25;;;15.90;88.50;;;;;;5101464;28;20118;-77
2021/07/24 02:18:51;;;;;;;21.33;15.18;;;15.90;88.50;;;;;;5102857;28;20016;-76
2021/07/24 02:21:17;;;;;;;20.90;15.20;;;15.80;88.50;;;;;;5086204;28;20058;-75
2021/07/24 02:23:42;;;;;;;23.25;16.38;;;15.80;88.70;;;;;;5098611;28;20027;-83
2021/07/24 02:26:11;;;;;;;20.25;15.75;;;15.80;88.80;;;;;;5101091;28;20047;-75
2021/07/24 02:28:37;;;;;;;20.25;15.70;;;15.80;88.90;;;;;;5069509;28;20421;-76
2021/07/24 02:31:05;;;;;;;21.30;15.98;;;15.80;89.00;;;;;;5094269;28;20039;-76
2021/07/24 02:33:31;;;;;;;21.30;15.10;;;15.80;89.00;;;;;;5092326;28;20024;-79
2021/07/24 02:35:56;;;;;;;18.63;16.10;;;15.70;89.00;;;;;;5092521;28;20456;-76
2021/07/24 02:38:22;;;;;;;24.25;15.95;;;15.70;89.00;;;;;;5059391;28;20043;-77
2021/07/24 02:40:48;;;;;;;21.80;15.63;;;15.60;89.10;;;;;;5093205;28;20032;-76
2021/07/24 02:43:14;;;;;;;20.77;16.25;;;15.60;89.30;;;;;;5093462;28;20054;-76
2021/07/24 02:45:40;;;;;;;21.60;16.13;;;15.60;89.60;;;;;;5094060;28;20453;-77
2021/07/24 02:48:06;;;;;;;20.13;16.40;;;15.50;89.60;;;;;;5092459;28;20034;-76
2021/07/24 02:50:31;;;;;;;24.52;16.80;;;15.50;89.80;;;;;;5094108;28;20028;-76
2021/07/24 02:52:57;;;;;;;22.92;16.30;;;15.50;90.20;;;;;;5092178;28;20119;-76
2021/07/24 02:55:22;;;;;;;25.80;17.13;;;15.50;90.00;;;;;;5075080;28;20032;-80
2021/07/24 02:57:48;;;;;;;22.60;17.10;;;15.40;90.10;;;;;;5092884;28;20035;-76
2021/07/24 03:00:14;;;;;;;22.85;16.88;;;15.30;90.20;;;;;;5091941;28;20032;-76
2021/07/24 03:02:40;;;;;;;26.67;17.92;;;15.30;90.20;;;;;;5092477;28;20157;-77
2021/07/24 03:05:06;;;;;;;21.88;17.63;;;15.30;90.30;;;;;;5092464;28;20086;-77
2021/07/24 03:07:32;;;;;;;25.17;18.20;;;15.30;90.40;;;;;;5091968;28;20032;-76
2021/07/24 03:09:57;;;;;;;25.80;17.80;;;15.30;90.40;;;;;;5092263;28;20027;-77
2021/07/24 03:12:23;;;;;;;24.67;17.67;;;15.30;90.40;;;;;;5093456;28;20444;-77
2021/07/24 03:14:48;;;;;;;24.15;17.92;;;15.40;90.50;;;;;;5092259;28;20060;-77
2021/07/24 03:17:14;;;;;;;25.88;18.67;;;15.30;90.50;;;;;;5092164;28;20066;-77
2021/07/24 03:19:40;;;;;;;21.92;17.33;;;15.40;90.60;;;;;;5092953;28;20043;-81
2021/07/24 03:22:06;;;;;;;23.45;18.38;;;15.30;90.50;;;;;;5092013;28;20119;-77
2021/07/24 03:24:31;;;;;;;21.95;17.45;;;15.40;90.50;;;;;;5091714;28;20055;-77
2021/07/24 03:26:57;;;;;;;22.98;18.90;;;15.40;90.50;;;;;;5058925;28;20103;-77
2021/07/24 03:29:23;;;;;;;22.95;17.63;;;15.40;90.50;;;;;;5075272;28;20115;-77
2021/07/24 03:31:49;;;;;;;25.90;18.13;;;15.40;90.50;;;;;;5075108;28;20036;-77
2021/07/24 03:34:14;;;;;;;20.10;16.73;;;15.40;90.50;;;;;;5092159;28;20020;-81
2021/07/24 03:36:40;;;;;;;25.15;17.80;;;15.50;90.40;;;;;;5075351;28;20452;-79
2021/07/24 03:39:06;;;;;;;24.45;16.90;;;15.50;90.40;;;;;;5092090;28;20024;-77
2021/07/24 03:41:35;;;;;;;23.77;16.88;;;15.50;90.30;;;;;;5092440;28;20467;-77
2021/07/24 03:44:04;;;;;;;26.85;18.48;;;15.60;90.30;;;;;;5097703;28;20027;-77
2021/07/24 03:46:30;;;;;;;21.92;16.30;;;15.60;90.30;;;;;;5062945;28;20024;-77
2021/07/24 03:48:56;;;;;;;24.02;15.95;;;15.60;90.20;;;;;;5097141;28;20389;-77
2021/07/24 03:51:21;;;;;;;21.77;16.15;;;15.70;90.20;;;;;;5095828;28;20036;-75
2021/07/24 03:53:47;;;;;;;21.98;17.30;;;15.70;90.20;;;;;;5095378;28;20131;-76
2021/07/24 03:56:15;;;;;;;21.50;15.48;;;15.90;89.90;;;;;;5079479;28;20031;-76
2021/07/24 03:58:44;;;;;;;24.00;17.27;;;15.90;89.70;;;;;;5096868;28;20486;-79
2021/07/24 04:01:11;;;;;;;22.75;17.65;;;15.90;89.60;;;;;;5095707;28;20032;-77
2021/07/24 04:03:37;;;;;;;21.85;15.73;;;15.90;89.50;;;;;;5095556;28;20119;-76
2021/07/24 04:06:04;;;;;;;20.40;16.25;;;16.00;89.40;;;;;;5078522;28;20028;-76
2021/07/24 04:08:31;;;;;;;23.27;16.67;;;16.10;89.20;;;;;;5095324;28;20468;-76
2021/07/24 04:10:57;;;;;;;21.08;15.43;;;16.20;88.90;;;;;;5095111;28;20043;-76
2021/07/24 04:13:23;;;;;;;22.33;16.25;;;16.30;88.60;;;;;;5097538;28;20082;-77
2021/07/24 04:15:48;;;;;;;23.40;17.02;;;16.40;88.30;;;;;;5094827;28;20020;-77
2021/07/24 04:18:14;;;;;;;24.67;15.45;;;16.30;88.10;;;;;;5096469;28;20111;-77
2021/07/24 04:20:41;;;;;;;25.40;15.70;;;16.30;88.20;;;;;;5078390;28;20037;-77
2021/07/24 04:23:07;;;;;;;24.13;16.73;;;16.40;88.10;;;;;;5096589;28;20027;-77
2021/07/24 04:25:33;;;;;;;24.25;15.82;;;16.40;88.00;;;;;;5096618;28;20405;-78
2021/07/24 04:27:59;;;;;;;19.38;15.15;;;16.40;87.90;;;;;;5078278;28;20162;-77
2021/07/24 04:30:24;;;;;;;20.98;15.23;;;16.40;87.90;;;;;;5078325;28;20390;-77
2021/07/24 04:32:51;;;;;;;22.95;15.23;;;16.50;87.90;;;;;;5094730;28;20054;-77
2021/07/24 04:35:16;;;;;;;20.73;16.25;;;16.60;87.60;;;;;;5094897;28;20024;-78
2021/07/24 04:37:42;;;;;;;20.38;15.95;;;16.80;87.20;;;;;;5094426;28;20034;-77
2021/07/24 04:40:08;;;;;;;23.55;14.95;;;16.90;86.70;;;;;;5095057;28;20059;-77
2021/07/24 04:42:33;;;;;;;22.17;15.95;;;16.90;86.70;;;;;;5096728;28;20059;-76
2021/07/24 04:44:59;;;;;;;21.08;15.68;;;16.80;86.70;;;;;;5094607;28;20028;-76
2021/07/24 04:47:25;;;;;;;17.13;14.05;;;16.70;86.80;;;;;;5094375;28;20032;-77
2021/07/24 04:49:53;;;;;;;17.85;13.90;;;16.70;87.10;;;;;;5094558;28;20024;-77
2021/07/24 04:52:20;;;;;;;18.05;14.65;;;16.70;87.10;;;;;;5095737;28;20024;-76
2021/07/24 04:54:47;;;;;;;25.70;16.25;;;16.80;86.90;;;;;;5093284;28;20028;-76
2021/07/24 04:57:13;;;;;;;21.63;16.50;;;16.80;86.70;;;;;;5078781;28;20028;-77
2021/07/24 04:59:47;;;;;;;19.65;15.35;;;17.10;86.30;;;;;;5096691;28;20028;-76
2021/07/24 05:02:20;;;;;;;17.05;13.38;;;17.40;85.40;;;;;;5095296;28;20035;-77
2021/07/24 05:04:47;;;;;;;19.45;14.52;;;17.60;84.80;;;;;;5095196;28;20020;-76
2021/07/24 05:07:14;;;;;;;17.02;14.93;;;17.70;84.00;;;;;;5095846;28;20102;-76
2021/07/24 05:09:40;;;;;;;19.17;14.23;;;17.70;83.90;;;;;;5094813;28;20035;-77
2021/07/24 05:12:06;;;;;;;22.02;13.88;;;17.80;84.00;;;;;;5077782;28;20410;-77
2021/07/24 05:14:32;;;;;;;17.42;13.45;;;17.80;83.80;;;;;;5094788;28;20491;-77
2021/07/24 05:17:11;;;;;;;18.08;13.55;;;17.90;83.80;;;;;;5078244;28;20035;-77
2021/07/24 05:19:38;;;;;;;17.50;14.23;;;18.00;83.50;;;;;;5094275;28;20050;-77
2021/07/24 05:22:08;;;;;;;18.15;14.18;;;18.10;83.00;;;;;;5093848;28;20111;-76
2021/07/24 05:24:35;;;;;;;20.17;14.77;;;18.10;82.80;;;;;;5094062;28;20035;-76
2021/07/24 05:27:02;;;;;;;18.75;14.20;;;17.90;83.20;;;;;;5095393;28;20535;-76
2021/07/24 05:29:28;;;;;;;18.77;14.25;;;17.90;83.60;;;;;;5094016;28;20051;-76
2021/07/24 05:31:54;;;;;;;20.90;14.75;;;17.90;83.70;;;;;;5095193;28;20024;-80
2021/07/24 05:34:19;;;;;;;18.13;14.98;;;17.90;83.60;;;;;;5094012;28;20017;-78
2021/07/24 05:36:45;;;;;;;20.20;14.98;;;17.80;83.90;;;;;;5093648;28;20028;-76
2021/07/24 05:39:11;;;;;;;19.63;15.20;;;17.80;84.10;;;;;;5094222;28;20063;-77
2021/07/24 05:41:36;;;;;;;21.67;14.57;;;17.80;84.10;;;;;;5096218;28;20043;-77
2021/07/24 05:44:02;;;;;;;18.98;15.07;;;17.90;84.10;;;;;;5094969;28;20024;-77
2021/07/24 05:46:28;;;;;;;19.40;14.63;;;17.80;84.10;;;;;;5095056;28;20020;-77
2021/07/24 05:48:54;;;;;;;20.95;15.80;;;17.80;84.30;;;;;;5076681;28;20032;-82
2021/07/24 05:51:19;;;;;;;17.95;15.30;;;17.80;84.30;;;;;;5093552;28;20099;-77
2021/07/24 05:53:45;;;;;;;17.98;14.00;;;17.90;84.30;;;;;;5093167;28;20480;-77
2021/07/24 05:56:11;;;;;;;19.85;15.38;;;18.10;84.00;;;;;;5094267;28;20035;-77
2021/07/24 05:58:36;;;;;;;20.15;14.68;;;18.20;83.70;;;;;;5093509;28;20042;-76
2021/07/24 06:01:07;;;;;;;21.55;16.33;;;18.30;83.50;;;;;;5095341;28;20054;-76
2021/07/24 06:03:32;;;;;;;19.55;15.50;;;18.40;83.30;;;;;;5093441;28;20036;-76
2021/07/24 06:06:01;;;;;;;22.27;15.38;;;18.40;82.90;;;;;;5076162;28;20024;-77
2021/07/24 06:08:27;;;;;;;18.27;14.38;;;18.60;82.70;;;;;;5093936;28;20028;-76
2021/07/24 06:10:53;;;;;;;19.70;15.05;;;18.70;82.30;;;;;;5077290;28;20149;-75
2021/07/24 06:13:23;;;;;;;22.50;15.77;;;18.90;82.00;;;;;;5094154;28;20472;-75
2021/07/24 06:15:49;;;;;;;20.88;14.70;;;19.00;81.30;;;;;;5061403;28;20056;-75
2021/07/24 06:18:14;;;;;;;20.50;14.55;;;19.10;81.00;;;;;;5076354;28;20566;-77
2021/07/24 06:20:40;;;;;;;24.48;15.73;;;19.00;80.80;;;;;;5093096;28;20468;-77
2021/07/24 06:23:06;;;;;;;21.25;16.40;;;18.80;81.10;;;;;;5093053;28;20066;-77
2021/07/24 06:25:32;;;;;;;22.98;15.77;;;18.80;81.80;;;;;;5093221;28;20480;-76
2021/07/24 06:27:58;;;;;;;21.42;15.63;;;18.80;81.80;;;;;;5092500;28;20063;-82
2021/07/24 06:30:23;;;;;;;20.17;15.52;;;18.80;81.50;;;;;;5093032;28;20028;-76
2021/07/24 06:32:49;;;;;;;21.45;15.55;;;18.70;81.80;;;;;;5093736;28;20031;-77
2021/07/24 06:35:14;;;;;;;21.83;15.25;;;18.70;82.30;;;;;;5093041;28;20054;-77
2021/07/24 06:37:40;;;;;;;18.92;14.32;;;18.70;82.20;;;;;;5092750;28;20480;-77
2021/07/24 06:40:06;;;;;;;18.88;15.20;;;18.90;81.90;;;;;;5093952;28;20032;-78
2021/07/24 06:42:32;;;;;;;20.45;14.55;;;19.00;81.60;;;;;;5093922;28;20488;-77
2021/07/24 06:44:57;;;;;;;18.73;14.00;;;19.10;81.50;;;;;;5075862;28;20085;-77
2021/07/24 06:47:23;;;;;;;20.60;14.52;;;19.40;81.20;;;;;;5075275;28;20024;-76
2021/07/24 06:49:48;;;;;;;16.30;12.73;;;19.60;80.40;;;;;;5092660;28;20032;-76
2021/07/24 06:52:14;;;;;;;18.85;14.32;;;19.70;80.00;;;;;;5075136;28;20021;-77
2021/07/24 06:54:40;;;;;;;21.38;13.77;;;19.80;79.00;;;;;;5093221;28;20410;-76
2021/07/24 06:57:06;;;;;;;17.80;13.43;;;19.70;79.20;;;;;;5059885;28;20024;-83
2021/07/24 06:59:32;;;;;;;21.90;14.45;;;19.80;79.40;;;;;;5093833;28;20039;-77
2021/07/24 07:01:59;;;;;;;20.80;15.20;;;19.80;79.10;;;;;;5093446;28;20055;-77
2021/07/24 07:04:26;;;;;;;21.15;14.23;;;19.90;78.90;;;;;;5060776;28;20414;-78
2021/07/24 07:06:51;;;;;;;25.65;18.27;;;19.90;78.60;;;;;;5092274;28;20055;-77
2021/07/24 07:09:17;;;;;;;21.02;15.30;;;19.90;78.70;;;;;;5092209;28;20085;-77
2021/07/24 07:11:43;;;;;;;19.33;14.15;;;19.90;78.60;;;;;;5092317;28;20024;-77
2021/07/24 07:14:08;;;;;;;20.25;15.10;;;19.80;78.50;;;;;;5093438;28;20103;-77
2021/07/24 07:16:34;;;;;;;21.40;15.90;;;19.80;78.70;;;;;;5092317;28;20438;-76
2021/07/24 07:19:00;;;;;;;20.05;14.38;;;19.70;78.80;;;;;;5075287;28;20039;-76
2021/07/24 07:21:25;;;;;;;22.52;15.30;;;19.70;79.00;;;;;;5092107;28;20478;-77
2021/07/24 07:23:51;;;;;;;17.80;13.68;;;19.90;79.30;;;;;;5092853;28;20031;-76
2021/07/24 07:26:24;;;;;;;18.48;13.93;;;20.10;78.90;;;;;;5075257;28;20470;-77
2021/07/24 07:28:50;;;;;;;18.70;14.45;;;20.00;78.60;;;;;;5091700;28;20515;-76
2021/07/24 07:31:16;;;;;;;18.45;15.02;;;20.00;78.60;;;;;;5091993;28;20028;-76
2021/07/24 07:33:41;;;;;;;17.13;14.85;;;20.10;78.40;;;;;;5092228;28;20034;-77
2021/07/24 07:36:07;;;;;;;20.08;13.90;;;20.30;78.10;;;;;;5092368;28;20032;-81
2021/07/24 07:38:33;;;;;;;24.45;15.30;;;20.60;77.40;;;;;;5092260;28;20380;-76
2021/07/24 07:40:58;;;;;;;18.65;13.32;;;20.70;77.10;;;;;;5091946;28;20052;-75
2021/07/24 07:43:24;;;;;;;21.23;14.32;;;20.90;77.00;;;;;;5091387;28;20348;-76
2021/07/24 07:45:50;;;;;;;18.55;13.63;;;21.30;76.00;;;;;;5092064;28;20551;-76
2021/07/24 07:48:15;;;;;;;19.17;14.43;;;21.60;75.10;;;;;;5091786;28;20415;-76
2021/07/24 07:50:44;;;;;;;16.13;12.82;;;21.70;74.60;;;;;;5092755;28;20046;-77
2021/07/24 07:53:10;;;;;;;19.27;13.43;;;21.70;74.10;;;;;;5092553;28;20051;-81
2021/07/24 07:55:36;;;;;;;17.92;13.20;;;22.10;73.80;;;;;;5092060;28;20024;-76
2021/07/24 07:58:11;;;;;;;18.60;13.77;;;22.10;73.00;;;;;;5091837;28;20038;-77
2021/07/24 08:00:37;;;;;;;16.10;11.98;;;22.00;73.20;;;;;;5092465;28;20032;-77
2021/07/24 08:03:03;;;;;;;19.83;12.68;;;22.20;73.20;;;;;;5094356;28;20060;-75
2021/07/24 08:05:29;;;;;;;19.42;12.25;;;22.60;72.10;;;;;;5092722;28;20016;-76
2021/07/24 08:07:55;;;;;;;15.68;12.25;;;22.70;71.80;;;;;;5093767;28;20055;-75
2021/07/24 08:10:20;;;;;;;14.20;11.23;;;23.00;71.70;;;;;;5076385;28;20020;-77
2021/07/24 08:12:47;;;;;;;15.65;11.57;;;23.40;70.90;;;;;;5093683;28;20464;-76
2021/07/24 08:15:12;;;;;;;12.82;10.75;;;23.80;69.70;;;;;;5093153;28;20032;-81
2021/07/24 08:17:39;;;;;;;13.70;11.57;;;24.00;68.00;;;;;;5075065;28;20038;-75
2021/07/24 08:20:06;;;;;;;17.08;11.68;;;24.00;67.10;;;;;;5091724;28;20054;-76
2021/07/24 08:22:32;;;;;;;18.75;12.57;;;23.80;67.80;;;;;;5093502;28;20020;-76
2021/07/24 08:24:58;;;;;;;15.00;11.27;;;23.40;68.20;;;;;;5093176;28;20566;-77
2021/07/24 08:27:25;;;;;;;14.18;11.55;;;23.20;69.20;;;;;;5092138;28;20111;-77
2021/07/24 08:29:51;;;;;;;15.13;12.07;;;23.30;68.70;;;;;;5095695;28;20052;-75
2021/07/24 08:32:17;;;;;;;17.90;12.63;;;23.10;69.50;;;;;;5096126;28;20028;-79
2021/07/24 08:34:48;;;;;;;15.38;11.40;;;23.00;69.70;;;;;;5095906;28;20321;-78
2021/07/24 08:37:13;;;;;;;16.13;11.35;;;23.00;70.10;;;;;;5095037;28;20024;-82
2021/07/24 08:39:39;;;;;;;14.07;10.95;;;23.00;69.80;;;;;;5078586;28;20038;-75
2021/07/24 08:42:06;;;;;;;14.18;10.75;;;23.00;70.40;;;;;;5095974;28;20438;-75
2021/07/24 08:44:36;;;;;;;13.65;10.30;;;23.30;69.80;;;;;;5096455;28;20107;-78
2021/07/24 08:47:04;;;;;;;15.07;11.07;;;23.50;69.20;;;;;;5097978;28;20055;-78
2021/07/24 08:49:30;;;;;;;12.95;11.35;;;23.70;68.50;;;;;;5097892;28;20030;-77
2021/07/24 08:51:58;;;;;;;13.35;11.23;;;23.80;67.90;;;;;;5096455;28;20058;-75
2021/07/24 08:54:24;;;;;;;12.25;10.68;;;23.90;67.30;;;;;;5096886;28;20495;-77
2021/07/24 08:56:50;;;;;;;13.68;10.32;;;24.00;67.20;;;;;;5095951;28;20032;-78
2021/07/24 08:59:20;;;;;;;13.18;10.65;;;23.80;67.30;;;;;;5096022;28;20117;-84
2021/07/24 09:01:52;;;;;;;16.88;12.02;;;23.40;67.90;;;;;;5096300;28;20032;-75
2021/07/24 09:04:21;;;;;;;14.32;11.35;;;23.30;68.20;;;;;;5096022;28;20075;-81
2021/07/24 09:06:52;;;;;;;13.77;11.48;;;23.20;68.60;;;;;;5096742;28;20387;-77
2021/07/24 09:09:18;;;;;;;15.93;11.30;;;23.10;68.90;;;;;;5095468;28;20035;-77
2021/07/24 09:11:45;;;;;;;15.15;10.98;;;23.10;69.20;;;;;;5096789;28;20028;-77
2021/07/24 09:14:12;;;;;;;17.88;12.05;;;23.10;69.40;;;;;;5094720;28;20036;-76
2021/07/24 09:16:39;;;;;;;15.70;12.27;;;23.20;69.40;;;;;;5095920;28;20051;-76
2021/07/24 09:19:06;;;;;;;18.70;12.07;;;23.20;69.00;;;;;;5077806;28;20032;-76
2021/07/24 09:21:32;;;;;;;13.23;10.48;;;23.20;68.90;;;;;;5061189;28;20464;-78
2021/07/24 09:24:21;;;;;;;15.00;10.68;;;23.20;69.10;;;;;;5094945;28;20067;-76
2021/07/24 09:26:47;;;;;;;15.70;11.63;;;23.20;69.80;;;;;;5095260;28;20097;-76
2021/07/24 09:29:15;;;;;;;12.80;11.43;;;23.30;69.00;;;;;;5094484;28;20056;-76
2021/07/24 09:31:41;;;;;;;12.55;11.32;;;23.20;69.40;;;;;;5095578;28;20032;-77
2021/07/24 09:34:08;;;;;;;14.25;11.88;;;23.20;69.10;;;;;;5095306;28;20027;-76
2021/07/24 09:36:35;;;;;;;17.55;12.63;;;23.20;69.00;;;;;;5094019;28;20024;-77
2021/07/24 09:39:08;;;;;;;18.85;11.02;;;23.20;68.80;;;;;;5094536;28;20035;-76
2021/07/24 09:41:34;;;;;;;11.68;10.43;;;23.10;68.90;;;;;;5093981;28;20036;-76
2021/07/24 09:44:00;;;;;;;14.18;11.13;;;23.20;69.40;;;;;;5094019;28;20027;-76
2021/07/24 09:46:27;;;;;;;11.57;10.38;;;23.30;69.00;;;;;;5077066;28;20028;-77
2021/07/24 09:48:55;;;;;;;15.13;12.05;;;23.30;68.90;;;;;;5077669;28;20028;-76
2021/07/24 09:51:34;;;;;;;15.63;11.52;;;23.40;69.00;;;;;;5093919;28;20109;-79
2021/07/24 09:54:00;;;;;;;15.23;11.65;;;23.40;69.10;;;;;;5077431;28;20122;-78
2021/07/24 09:56:43;;;;;;;15.10;11.90;;;23.50;68.80;;;;;;5077587;28;20540;-76
2021/07/24 09:59:33;;;;;;;13.80;11.55;;;23.50;68.30;;;;;;5093834;28;20028;-77
2021/07/24 10:02:04;;;;;;;13.02;10.80;;;23.60;68.10;;;;;;5081567;28;20043;-76
2021/07/24 10:04:34;;;;;;;12.18;10.88;;;23.50;68.00;;;;;;5093380;28;20376;-78
2021/07/24 10:07:10;;;;;;;15.60;11.10;;;23.50;68.00;;;;;;5076578;28;20082;-76
2021/07/24 10:09:44;;;;;;;14.40;11.23;;;23.50;68.10;;;;;;5093735;28;20384;-77
2021/07/24 10:12:13;;;;;;;13.05;11.52;;;23.50;68.20;;;;;;5093296;28;20146;-76
2021/07/24 10:14:39;;;;;;;14.25;11.48;;;23.40;67.90;;;;;;5094675;28;20016;-76
2021/07/24 10:17:06;;;;;;;11.45;10.20;;;23.40;68.20;;;;;;5094482;28;20029;-75
2021/07/24 10:19:32;;;;;;;11.60;9.93;;;23.30;68.00;;;;;;5094313;28;20617;-77
2021/07/24 10:22:00;;;;;;;11.98;10.77;;;23.40;68.30;;;;;;5094565;28;20101;-77
2021/07/24 10:24:27;;;;;;;12.57;10.07;;;23.40;68.30;;;;;;5060314;28;20476;-80
2021/07/24 10:27:06;;;;;;;15.93;10.60;;;23.40;68.30;;;;;;5093737;28;20360;-78
2021/07/24 10:29:35;;;;;;;12.07;10.82;;;23.50;68.20;;;;;;5094603;28;20055;-78
2021/07/24 10:32:03;;;;;;;13.75;11.13;;;23.50;68.60;;;;;;5094309;28;20043;-77
2021/07/24 10:34:32;;;;;;;13.20;10.75;;;23.50;68.70;;;;;;5094528;28;20024;-76
2021/07/24 10:36:58;;;;;;;16.20;11.15;;;23.50;68.70;;;;;;5093991;28;20103;-77
2021/07/24 10:39:25;;;;;;;15.20;10.82;;;23.40;69.00;;;;;;5093218;28;20500;-78
2021/07/24 10:42:10;;;;;;;16.70;10.75;;;23.30;69.20;;;;;;5076545;28;20036;-75
2021/07/24 10:44:54;;;;;;;12.85;11.15;;;23.40;69.70;;;;;;5092912;28;20032;-77
2021/07/24 10:47:21;;;;;;;13.75;10.45;;;23.30;69.50;;;;;;5094147;28;20060;-77
2021/07/24 10:49:47;;;;;;;13.63;11.38;;;23.30;69.80;;;;;;5093909;28;20052;-77
2021/07/24 10:52:13;;;;;;;15.70;12.05;;;23.30;69.80;;;;;;5092588;28;20426;-76
2021/07/24 10:55:02;;;;;;;17.23;12.45;;;23.20;69.70;;;;;;5092759;28;20028;-77
2021/07/24 10:57:46;;;;;;;13.98;12.07;;;23.20;69.80;;;;;;5092883;28;20028;-83
2021/07/24 11:00:17;;;;;;;16.00;12.50;;;23.10;70.00;;;;;;5093681;28;20028;-76
2021/07/24 11:02:50;;;;;;;17.15;12.13;;;23.10;70.10;;;;;;5092773;28;20438;-77
2021/07/24 11:05:23;;;;;;;14.70;11.77;;;23.10;70.60;;;;;;5075689;28;20028;-76
2021/07/24 11:07:49;;;;;;;17.27;12.52;;;23.10;70.30;;;;;;5092793;28;20016;-77
2021/07/24 11:10:15;;;;;;;15.07;13.23;;;23.10;71.00;;;;;;5092754;28;20054;-77
2021/07/24 11:12:41;;;;;;;15.75;12.02;;;23.10;70.80;;;;;;5075752;28;20119;-78
2021/07/24 11:15:11;;;;;;;16.98;13.35;;;23.00;70.80;;;;;;5076161;28;20067;-76
2021/07/24 11:17:37;;;;;;;21.98;13.18;;;23.00;71.00;;;;;;5093630;28;20024;-78
2021/07/24 11:20:05;;;;;;;18.17;12.52;;;22.90;71.40;;;;;;5093346;28;20055;-77
2021/07/24 11:22:32;;;;;;;15.45;12.27;;;22.80;71.60;;;;;;5094178;28;20024;-81
2021/07/24 11:24:58;;;;;;;19.25;12.52;;;22.90;71.70;;;;;;5092479;28;20111;-76
2021/07/24 11:27:26;;;;;;;16.98;12.05;;;22.90;71.70;;;;;;5092396;28;20048;-75
2021/07/24 11:30:04;;;;;;;21.20;12.60;;;23.00;71.60;;;;;;5092722;28;20493;-75
2021/07/24 11:32:35;;;;;;;15.60;12.00;;;22.90;71.90;;;;;;5092502;28;20062;-79
2021/07/24 11:35:06;;;;;;;13.48;12.07;;;23.00;71.60;;;;;;5077740;28;20401;-78
2021/07/24 11:37:37;;;;;;;15.27;12.70;;;23.00;71.40;;;;;;5076043;28;20073;-79
2021/07/24 11:40:05;;;;;;;17.07;13.00;;;23.00;71.70;;;;;;5093849;28;20038;-75
2021/07/24 11:42:31;;;;;;;14.70;12.40;;;23.10;71.70;;;;;;5092893;28;20277;-76
2021/07/24 11:44:57;;;;;;;15.63;12.70;;;23.10;71.50;;;;;;5093012;28;20021;-75
2021/07/24 11:47:22;;;;;;;15.10;13.40;;;23.10;71.90;;;;;;5076029;28;20036;-76
2021/07/24 11:49:48;;;;;;;18.10;13.85;;;23.10;71.90;;;;;;5094534;28;20028;-76
2021/07/24 11:52:14;;;;;;;22.45;16.58;;;23.20;71.80;;;;;;5076290;28;20028;-75
2021/07/24 11:54:39;;;;;;;18.55;14.18;;;23.20;71.50;;;;;;5058027;28;20574;-77
2021/07/24 11:57:06;;;;;;;18.33;14.23;;;23.20;71.30;;;;;;5091780;28;20082;-77
2021/07/24 11:59:40;;;;;;;17.88;13.95;;;23.20;71.40;;;;;;5075062;28;20032;-75
2021/07/24 12:02:19;;;;;;;16.35;14.48;;;23.10;71.60;;;;;;5093091;28;20024;-74
2021/07/24 12:04:49;;;;;;;17.42;14.00;;;23.10;72.10;;;;;;5095862;28;20095;-77
2021/07/24 12:07:16;;;;;;;20.83;14.80;;;23.00;72.50;;;;;;5096272;28;20024;-75
2021/07/24 12:09:42;;;;;;;18.50;14.98;;;23.00;72.80;;;;;;5096370;28;20032;-75
2021/07/24 12:12:08;;;;;;;16.70;15.00;;;22.90;73.00;;;;;;5098600;28;20072;-76
2021/07/24 12:14:33;;;;;;;17.75;15.85;;;22.80;73.60;;;;;;5097371;28;20032;-74
2021/07/24 12:17:10;;;;;;;17.17;15.35;;;22.80;74.30;;;;;;5097556;28;20070;-75
2021/07/24 12:19:37;;;;;;;17.83;15.15;;;22.80;74.70;;;;;;5097303;28;20039;-77
2021/07/24 12:22:16;;;;;;;20.45;16.25;;;22.70;75.00;;;;;;5095516;28;20119;-75
2021/07/24 12:24:43;;;;;;;20.13;16.13;;;22.60;75.30;;;;;;5095826;28;20368;-75
2021/07/24 12:27:11;;;;;;;20.50;16.75;;;22.60;75.80;;;;;;5096946;28;20028;-75
2021/07/24 12:29:50;;;;;;;19.67;17.55;;;22.50;76.00;;;;;;5095248;28;20044;-77
2021/07/24 12:32:16;;;;;;;17.85;15.65;;;22.40;76.30;;;;;;5095045;28;20028;-75
2021/07/24 12:34:42;;;;;;;19.85;16.17;;;22.20;76.60;;;;;;5096906;28;20077;-76